Tiempo atmosférico en la estación meteorológica de Caravaca de La Cruz, Murcia (643 m.)



Fecha
DESCASC
Temp. máxima en grados centígrados (hora)
DESCASC
Temp. mínima en grados centígrados (hora)
DESCASC
Temp. media en grados centígrados
DESCASC
Racha de viento máxima en m/sg (hora)
DESCASC
Velocidad máxima media en intervalos de 10 minutos(hora)
DESCASC
Precipitaciones diarias en mm
DESCASC
Precipitaciones de 00:00 a 06:00 en mm
DESCASC
Precipitaciones de 06:00 a 12:00 en mm
DESCASC
Precipitaciones de 12:00 a 18:00 en mm
DESCASC
Precipitaciones de 18:00 a 24:00 en mm
DESCASC
28-02-2021 10.3 (17:10) 6.5 (00:10) 8.4 6.39 (22:40) 3.06 (22:20) 0 0 0 0 0
27-02-2021 14.5 (14:50) 5.5 (22:40) 10 5.83 (15:50) 3.06 (12:50) 0 0 0 0 0
26-02-2021 12.6 (17:10) 6.1 (22:00) 9.4 4.72 (15:00) 2.78 (14:00) 0 0 0 0 0
25-02-2021 15.3 (14:50) 5.1 (00:00) 10.2 6.39 (16:40) 3.61 (16:50) 0 0 0 0 0
24-02-2021 15.4 (14:40) 6.7 (00:00) 11 7.78 (15:50) 4.17 (16:50) 0 0 0 0 0
23-02-2021 15.4 (14:20) 5 (00:00) 10.2 7.22 (10:20) 3.89 (10:20) 0 0 0 0 0
22-02-2021 14.5 (15:00) 3.1 (00:00) 8.8 12.5 (10:30) 6.11 (10:00) 0 0 0 0 0
21-02-2021 13.2 (14:40) 5.3 (00:00) 9.3 11.67 (19:20) 4.44 (19:20) 4.8 0 0 0 4.8
20-02-2021 18.2 (11:30) 3.8 (00:00) 11 6.39 (07:30) 3.89 (07:20) 0 0 0 0 0
19-02-2021 22.1 (15:00) 5.4 (00:00) 13.8 7.5 (01:00) 5.28 (01:10) 0 0 0 0 0
18-02-2021 20 (14:40) 1.7 (00:00) 10.9 6.67 (05:10) 4.44 (05:10) 0 0 0 0 0
17-02-2021 21.7 (14:50) 4.6 (00:00) 13.2 7.78 (02:40) 4.72 (02:40) 0 0 0 0 0
16-02-2021 17.1 (16:50) -0.4 (00:00) 8.4 6.39 (23:20) 4.17 (22:50) 0 0 0 0 0
15-02-2021 14.8 (14:20) 5.4 (00:00) 10.1 7.78 (13:10) 4.17 (15:30) 0 0 0 0 0
14-02-2021 16.2 (13:20) 3.1 (00:00) 9.7 6.67 (13:50) 3.61 (08:10) 0 0 0 0 0
13-02-2021 18.2 (15:20) 5 (00:00) 11.6 5.28 (10:00) 3.61 (03:40) 0 0 0 0 0
12-02-2021 20.1 (12:30) 6.9 (00:00) 13.5 11.67 (14:00) 6.11 (13:00) 0 0 0 0 0
11-02-2021 20.5 (12:40) 8 (00:00) 14.3 6.11 (09:40) 3.89 (02:00) 0 0 0 0 0
10-02-2021 19 (14:30) 7.1 (00:00) 13 19.17 (05:10) 7.5 (02:40) 0.2 0.2 0 0 0
09-02-2021 16.9 (14:30) 4.3 (00:00) 10.6 13.61 (16:00) 7.5 (16:10) 0 0 0 0 0
08-02-2021 14.8 (10:20) 4.8 (00:00) 9.8 17.5 (16:20) 9.72 (16:20) 0 0 0 0 0
07-02-2021 15.6 (14:20) 3.3 (00:00) 9.5 9.17 (23:59) 5.56 (23:59) 0 0 0 0 0
06-02-2021 17 (15:40) 4.8 (00:00) 10.9 9.72 (12:00) 5.56 (11:50) 0.2 0.2 0 0 0
05-02-2021 14.1 (16:10) 4.8 (00:00) 9.5 4.72 (23:50) 3.06 (23:50) 0 0 0 0 0
04-02-2021 20.7 (13:30) 6.7 (00:00) 13.7 6.11 (07:50) 3.89 (07:50) 0 0 0 0 0
03-02-2021 15.9 (15:50) 3.2 (00:00) 9.5 4.44 (13:00) 2.5 (12:30) 0 0 0 0 0
02-02-2021 21.1 (14:20) 6.8 (00:00) 14 9.17 (03:40) 5 (03:50) 0 0 0 0 0
01-02-2021 21.7 (15:10) 10.2 (00:00) 16 21.39 (01:10) 8.61 (00:50) 0 0 0 0 0
31-01-2021 18.1 (13:40) 7.6 (00:00) 12.9 19.72 (23:30) 10.28 (23:30) 0 0 0 0 0
30-01-2021 18.4 (13:50) 9.4 (00:00) 13.9 19.17 (14:40) 11.11 (14:40) 0 0 0 0 0

Gráficas

Temp. máximas Temp. mínimas Temp. medias Precipitaciones Rachas de viento máximas Velocidades máximas media en intervalos de 10 minutos

Datos horarios

Fecha y hora oficial Temperatura (ºC) Velocidad del viento (km/h) Dirección del viento Racha (km/h) Dirección de racha Precipitación (mm) Presión (hPa) Tendencia (hPa) Humedad (%)
2021-02-28 23:00:00 8.8 9 Este 23 Nordeste 0 947.3 -- 78
2021-02-28 22:00:00 8.9 8 Nordeste 18 Nordeste 0 947 -- 77
2021-02-28 21:00:00 9.1 6 Este 16 Nordeste 0 946.7 -- 78
2021-02-28 20:00:00 9.3 5 Nordeste 13 Nordeste 0 946.3 -- 78
2021-02-28 19:00:00 9.7 7 Este 15 Este 0 946 -- 75
2021-02-28 18:00:00 10.3 7 Este 18 Este 0 945.9 -- 71
2021-02-28 17:00:00 10.1 4 Norte 11 Nordeste 0 946.1 -- 74
2021-02-28 16:00:00 9.6 6 Nordeste 13 Nordeste 0 946.2 -- 77
2021-02-28 15:00:00 9.5 6 Este 15 Este 0 946.6 -- 80
2021-02-28 14:00:00 9 8 Este 17 Norte 0 947.1 -- 81
2021-02-28 13:00:00 9.2 4 Nordeste 8 Nordeste 0 947.7 -- 78
2021-02-28 12:00:00 8.7 4 Nordeste 16 Este 0 948.2 -- 83
2021-02-28 11:00:00 8.7 3 Nordeste 12 Nordeste 0 948.2 -- 80
2021-02-28 10:00:00 8.2 4 Nordeste 9 Este 0 948 -- 81
2021-02-28 09:00:00 8 7 Este 12 Este 0 947.7 -- 80
2021-02-28 08:00:00 7.8 3 Oeste 8 Este 0 947.2 -- 80
2021-02-28 07:00:00 7.9 3 Sudoeste 9 Nordeste 0 947.3 -- 78
2021-02-28 06:00:00 7.9 5 Nordeste 9 Norte 0 947.2 -- 77
2021-02-28 05:00:00 7.8 5 Norte 12 Nordeste 0 947 -- 78
2021-02-28 04:00:00 7.7 5 Nordeste 12 Nordeste 0 947.4 -- 81
2021-02-28 03:00:00 7.7 5 Nordeste 14 Nordeste 0 947.8 -- 83
2021-02-28 02:00:00 7.6 6 Nordeste 13 Nordeste 0 948.1 -- 85
2021-02-28 01:00:00 7.1 3 Norte 12 Norte 0 948.1 -- 86
2021-02-28 00:00:00 6.6 4 Norte 11 Norte 0 947.8 -- 85
2021-02-27 23:00:00 6.1 5 Nordeste 11 Norte 0 947.8 -- 84
2021-02-27 22:00:00 6.4 5 Norte 9 Norte 0 947.4 -- 80
2021-02-27 21:00:00 7 5 Noroeste 8 Noroeste 0 947.2 -- 75
2021-02-27 20:00:00 8.4 4 Noroeste 7 Noroeste 0 947.3 -- 71
2021-02-27 19:00:00 10.4 2 Norte 13 Nordeste 0 947.2 -- 63
2021-02-27 18:00:00 12.3 7 Nordeste 17 Nordeste 0 947.2 -- 56
2021-02-27 17:00:00 13.4 9 Nordeste 19 Nordeste 0 947.4 -- 53
2021-02-27 16:00:00 14.2 10 Este 21 Nordeste 0 947.6 -- 49
2021-02-27 15:00:00 13.9 8 Este -- -- -- 948.2 -- 49
2021-02-27 14:00:00 13.5 5 Este 19 Este 0 949 -- 51
2021-02-27 13:00:00 13.2 10 Sudeste 19 Este 0 949.8 -- 53
2021-02-27 12:00:00 11.9 9 Este 15 Este 0 950.5 -- 58
2021-02-27 11:00:00 10.4 5 Sudeste 10 Este 0 950.9 -- 65
2021-02-27 10:00:00 7.4 2 Este 7 Sudeste 0 951.2 -- 80
2021-02-27 09:00:00 6.6 4 Noroeste 8 Noroeste 0 951 -- 83
2021-02-27 08:00:00 6.3 3 Norte 7 Norte 0 950.6 -- 83
2021-02-27 07:00:00 6.1 2 Oeste 5 Oeste 0 950.6 -- 84
2021-02-27 06:00:00 6.4 4 Sudeste 12 Nordeste 0 950.5 -- 86
2021-02-27 05:00:00 7.1 7 Nordeste 18 Nordeste 0 950.5 -- 86
2021-02-27 04:00:00 7.5 5 Nordeste 10 Este 0 950.8 -- 88
2021-02-27 03:00:00 7.6 4 Sudoeste 8 Sudeste 0 951.3 -- 88
2021-02-27 02:00:00 8 3 Sudeste 9 Nordeste 0 951.7 -- 86
2021-02-27 01:00:00 8.3 4 Nordeste 12 Nordeste 0 952.2 -- 86
2021-02-27 00:00:00 8.4 5 Nordeste 12 Nordeste 0 952.3 -- 87
2021-02-26 23:00:00 8.1 5 Nordeste 10 Nordeste 0 952.7 -- 89
2021-02-26 22:00:00 6.1 2 Nordeste 8 Norte 0 952.5 -- 89
2021-02-26 21:00:00 6.9 4 Noroeste 9 Nordeste 0 952.2 -- 86
2021-02-26 20:00:00 8.2 6 Norte 13 Nordeste 0 952.2 -- 80
2021-02-26 19:00:00 10.2 3 Noroeste 7 Nordeste 0 951.9 -- 72
2021-02-26 18:00:00 11.9 4 Norte 8 Este 0 951.9 -- 65
2021-02-26 17:00:00 12.5 5 Este 10 Este 0 952 -- 61
2021-02-26 16:00:00 12.3 3 Nordeste 12 Nordeste 0 952.3 -- 60
2021-02-26 15:00:00 11 8 Este 17 Este 0 952.9 -- 70
2021-02-26 14:00:00 10.6 10 Este 16 Este 0 953.5 -- 72
2021-02-26 13:00:00 10.8 4 Este 12 Nordeste 0 954.2 -- 72
2021-02-26 12:00:00 10 5 Este 13 Este 0 954.7 -- 74
2021-02-26 11:00:00 9.7 6 Nordeste 12 Nordeste 0 954.6 -- 77
2021-02-26 10:00:00 9.3 4 Nordeste 8 Nordeste 0 954.5 -- 82
2021-02-26 09:00:00 8.8 4 Nordeste 12 Este 0 954 -- 85
2021-02-26 08:00:00 8 4 Nordeste 10 Nordeste 0 953.4 -- 88
2021-02-26 07:00:00 7.8 5 Norte 8 Norte 0 953.2 -- 89
2021-02-26 06:00:00 8.1 0 Calma 5 Sudeste 0 953.3 -- 88
2021-02-26 05:00:00 8.7 2 Norte 9 Este 0 953.2 -- 88
2021-02-26 04:00:00 8.8 3 Nordeste 14 Nordeste 0 953.4 -- 89
2021-02-26 03:00:00 9.1 7 Este 13 Nordeste 0 953.8 -- 88
2021-02-26 02:00:00 9.3 4 Norte 8 Noroeste 0 954.2 -- 87
2021-02-26 01:00:00 9.3 3 Norte 13 Nordeste 0 954.5 -- 87
2021-02-26 00:00:00 9.7 3 Nordeste 14 Nordeste 0 954.4 -- 81
2021-02-25 23:00:00 9.7 6 Nordeste 18 Este 0 954.3 -- 82
2021-02-25 22:00:00 9.6 10 Nordeste 18 Este 0 953.9 -- 81
2021-02-25 21:00:00 10.1 5 Norte 11 Nordeste 0 953.7 -- 81
2021-02-25 20:00:00 10.4 4 Nordeste 14 Nordeste 0 953.3 -- 79
2021-02-25 19:00:00 11.4 7 Nordeste 21 Este 0 952.9 -- 75
2021-02-25 18:00:00 12.5 10 Este 19 Este 0 952.5 -- 69
2021-02-25 17:00:00 13.5 10 Este 23 Este 0 952.3 -- 65
2021-02-25 16:00:00 14.4 10 Nordeste 23 Nordeste 0 952.5 -- 62
2021-02-25 15:00:00 15 10 Este 20 Este 0 952.8 -- 59
2021-02-25 14:00:00 14.7 8 Este 18 Sudeste 0 953.5 -- 59
2021-02-25 13:00:00 13.6 6 Este 16 Este 0 954.4 -- 62
2021-02-25 12:00:00 12.7 6 Sudeste 11 Nordeste 0 954.9 -- 65
2021-02-25 11:00:00 10.7 3 Noroeste 9 Sudeste 0 955.1 -- 69
2021-02-25 10:00:00 11 5 Sudeste 8 Sudeste 0 955 -- 69
2021-02-25 09:00:00 8.2 5 Sudoeste 12 Sudoeste 0 954.8 -- 78
2021-02-25 08:00:00 7.2 6 Oeste 13 Oeste 0 954.4 -- 81
2021-02-25 07:00:00 6 4 Oeste 12 Oeste 0 954.5 -- 82
2021-02-25 06:00:00 6 8 Oeste 12 Oeste 0 954.2 -- 81
2021-02-25 05:00:00 6.8 10 Oeste 15 Oeste 0 954.3 -- 79
2021-02-25 04:00:00 6.3 11 Sudoeste 17 Oeste 0 954.5 -- 84
2021-02-25 03:00:00 5.8 8 Oeste 16 Oeste 0 955 -- 87
2021-02-25 02:00:00 5.5 5 Oeste 9 Oeste 0 955.5 -- 87
2021-02-25 01:00:00 6.4 4 Noroeste 8 Noroeste 0 956.1 -- 86
2021-02-25 00:00:00 7.5 3 Norte 7 Nordeste 0 956.1 -- 83
2021-02-24 23:00:00 7.8 3 Nordeste 8 Norte 0 956.3 -- 84
2021-02-24 22:00:00 7.5 3 Norte 14 Nordeste 0 956.2 -- 84
2021-02-24 21:00:00 8.5 4 Norte 11 Noroeste 0 956.1 -- 82
2021-02-24 20:00:00 9.5 4 Norte 18 Este 0 955.6 -- 76
2021-02-24 19:00:00 11.5 9 Este 21 Sudeste 0 955.2 -- 64
2021-02-24 18:00:00 13.4 10 Este 19 Sudeste 0 954.9 -- 55
2021-02-24 17:00:00 14.6 11 Este 24 Nordeste 0 955.1 -- 51
2021-02-24 16:00:00 14.9 12 Este 28 Este 0 955.3 -- 51
2021-02-24 15:00:00 15.1 12 Este 23 Este 0 955.9 -- 49
2021-02-24 14:00:00 14.6 13 Este 26 Este 0 956.7 -- 52
2021-02-24 13:00:00 14.5 11 Este 22 Nordeste 0 957.9 -- 60
2021-02-24 12:00:00 13.2 8 Este 16 Sudeste 0 958.6 -- 70
2021-02-24 11:00:00 9.3 4 Sudoeste 9 Sudeste 0 958.9 -- 81
2021-02-24 10:00:00 8.4 3 Sudeste 8 Este 0 958.8 -- 81
2021-02-24 09:00:00 8.4 3 Nordeste 10 Nordeste 0 959 -- 82
2021-02-24 08:00:00 8.2 3 Norte 8 Sudeste 0 958.4 -- 81
2021-02-24 07:00:00 8.1 3 Sudeste 5 Nordeste 0 958 -0.3 80
2021-02-24 06:00:00 8 2 Noroeste 6 Nordeste 0 957.9 -0.9 82
2021-02-24 05:00:00 7.8 6 Sudoeste 12 Sur 0 958 -- 81
2021-02-24 04:00:00 7.1 2 Norte 5 Sudoeste 0 958.3 -- 83
2021-02-24 03:00:00 6.8 4 Oeste 8 Noroeste 0 958.8 -- 82
2021-02-24 02:00:00 8.3 0 Calma 6 Noroeste 0 959.2 -0.3 77
2021-02-24 01:00:00 8.4 3 Nordeste 10 Nordeste 0 959.2 -- 72
2021-02-24 00:00:00 9.9 3 Nordeste 11 Norte 0 959.4 -- 63
2021-02-23 23:00:00 9.7 4 Nordeste 12 Nordeste 0 959.5 -- 66
2021-02-23 22:00:00 9.7 5 Norte 13 Nordeste 0 959.2 -- 69
2021-02-23 21:00:00 10.8 6 Nordeste 13 Nordeste 0 958.4 1.9 61
2021-02-23 20:00:00 11.4 5 Norte 8 Norte 0 957.6 -- 55
2021-02-23 19:00:00 12.4 4 Nordeste 11 Nordeste 0 957 -- 52
2021-02-23 18:00:00 13 5 Nordeste 16 Este 0 956.5 -- 49
2021-02-23 17:00:00 13.7 8 Nordeste 18 Nordeste 0 956.4 -- 47
2021-02-23 16:00:00 14 5 Este 20 Este 0 956.6 -- 44
2021-02-23 15:00:00 14.3 9 Este 20 Nordeste 0 956.6 -- 44
2021-02-23 14:00:00 13.8 6 Norte 21 Nordeste 0 956.8 -- 48
2021-02-23 13:00:00 14.3 8 Este 20 Este 0 957.1 -- 49
2021-02-23 12:00:00 12 9 Nordeste 21 Norte 0 957.3 -- 54
2021-02-23 11:00:00 10.6 12 Nordeste 26 Nordeste 0 957.4 -- 66
2021-02-23 10:00:00 10.7 12 Nordeste 20 Nordeste 0 956.5 -- 65
2021-02-23 09:00:00 7.7 7 Nordeste 16 Norte 0 955.4 -- 75
2021-02-23 08:00:00 5.1 3 Noroeste 8 Oeste 0 954.7 -- 84
2021-02-23 07:00:00 5.7 2 Oeste 10 Sur 0 953.7 -- 79
2021-02-23 06:00:00 6.9 4 Sur 11 Nordeste 0 953.1 -- 74
2021-02-23 05:00:00 7.7 3 Sur 7 Este 0 952.6 -- 70
2021-02-23 04:00:00 7.9 5 Este 10 Nordeste 0 952.1 -- 68
2021-02-23 03:00:00 8 0 Calma 5 Sudoeste 0 951.6 -- 67
2021-02-23 02:00:00 8.1 3 Norte 8 Oeste 0 951.3 -- 67
2021-02-23 01:00:00 8.6 6 Oeste 10 Sudoeste 0 950.6 -- 61
2021-02-23 00:00:00 8.8 2 Sur 11 Sudoeste 0 950.3 -- 60
2021-02-22 23:00:00 9.6 6 Oeste 15 Noroeste 0 950.1 -- 54
2021-02-22 22:00:00 9.8 6 Oeste 17 Oeste 0 949.3 -- 53
2021-02-22 21:00:00 9.6 4 Oeste 15 Sudoeste 0 948.6 -- 52
2021-02-22 20:00:00 9.9 3 Este 10 Oeste 0 948 -- 52
2021-02-22 19:00:00 10.6 5 Sudoeste 17 Norte 0 946.8 -- 46
2021-02-22 18:00:00 11.4 6 Oeste 19 Norte 0 945.7 -- 43
2021-02-22 17:00:00 12.7 5 Norte 27 Norte 0 944.8 -- 38
2021-02-22 16:00:00 14.2 9 Oeste 28 Sudoeste 0 943.9 -- 36
2021-02-22 15:00:00 14.2 14 Oeste 31 Sudoeste 0 943.2 -- 32
2021-02-22 14:00:00 13.9 10 Sudoeste 23 Sudoeste 0 943.1 -- 34
2021-02-22 13:00:00 14 6 Noroeste 26 Oeste 0 943.3 -- 35
2021-02-22 12:00:00 13.2 7 Norte 24 Sudoeste 0 943.1 -- 35
2021-02-22 11:00:00 10.6 15 Oeste 45 Sudoeste 0 942.8 -- 39
2021-02-22 10:00:00 9.1 22 Oeste 41 Oeste 0 941.8 -- 47
2021-02-22 09:00:00 7.8 13 Sudoeste 27 Sudoeste 0 941.5 -- 57
2021-02-22 08:00:00 5.1 5 Sudoeste 13 Sudoeste 0 940.6 -- 72
2021-02-22 07:00:00 4.7 3 Oeste 10 Noroeste 0 939.9 2.3 81
2021-02-22 06:00:00 3.9 4 Sudoeste 12 Sudoeste 0 938.9 -- 84
2021-02-22 05:00:00 3.4 3 Noroeste 12 Noroeste 0 938.1 -- 88
2021-02-22 04:00:00 3.3 4 Nordeste 10 Sudoeste 0 937.6 -- 88
2021-02-22 03:00:00 4.1 5 Noroeste 12 Sudoeste 0 937.5 -- 86
2021-02-22 02:00:00 4.4 4 Oeste 9 Sudoeste 0 937 -- 88
2021-02-22 01:00:00 5.4 4 Sudoeste 10 Sur 0 936 -- 88
2021-02-22 00:00:00 6.5 4 Oeste 19 Sudoeste 0 934.9 -- 84
2021-02-21 23:00:00 7.7 10 Sudoeste 27 Sudoeste 0 934.4 -- 83
2021-02-21 22:00:00 7.6 8 Sudoeste 16 Sudoeste 0 933.9 2.4 88
2021-02-21 21:00:00 7.8 11 Sudoeste 22 Sudoeste 0.2 933.1 -- 87
2021-02-21 20:00:00 8 7 Sudoeste 42 Sudoeste 4.6 932.3 -- 87
2021-02-21 19:00:00 11.9 2 Sudeste 8 Este 0 931.5 -- 70
2021-02-21 18:00:00 12.4 4 Este 10 Sudeste 0 930.9 -- 66
2021-02-21 17:00:00 12.9 3 Sudeste 16 Este 0 930.6 -- 63
2021-02-21 16:00:00 13.2 6 Nordeste 15 Nordeste 0 930.6 -- 63
2021-02-21 15:00:00 12.6 2 Norte 16 Este 0 931.2 -- 63
2021-02-21 14:00:00 12.4 8 Nordeste 18 Este 0 931.5 -- 68
2021-02-21 13:00:00 11.5 12 Este 20 Este 0 932.8 -- 70
2021-02-21 12:00:00 11.7 3 Sudeste 9 Este 0 933.5 -- 71
2021-02-21 11:00:00 9.9 5 Sudoeste 30 Nordeste 0 934.9 -- 78
2021-02-21 10:00:00 8 4 Sur 10 Oeste 0 934.5 -- 87
2021-02-21 09:00:00 6.5 3 Norte 6 Nordeste 0 934.4 -- 90
2021-02-21 08:00:00 6.6 3 Oeste 12 Oeste 0 935.1 -- 90
2021-02-21 07:00:00 6 4 Oeste 8 Sudoeste 0 935.1 -- 89
2021-02-21 06:00:00 5.9 3 Sudoeste 10 Sur 0 935.5 -- 86
2021-02-21 05:00:00 5.6 5 Norte 11 Nordeste 0 936.1 -- 83
2021-02-21 04:00:00 6.8 4 Oeste 9 Oeste 0 936.9 -- 75
2021-02-21 03:00:00 7 5 Noroeste 10 Noroeste 0 938.3 -- 84
2021-02-21 02:00:00 8.2 5 Norte 10 Norte 0 939.4 -- 84
2021-02-21 01:00:00 9.2 4 Nordeste 11 Nordeste 0 940.2 -- 84
2021-02-21 00:00:00 9.1 5 Nordeste 14 Nordeste 0 940.5 -- 86
2021-02-20 23:00:00 9.1 6 Nordeste 14 Nordeste 0 940.8 -- 86
2021-02-20 22:00:00 9 6 Nordeste 13 Nordeste 0 941 -- 86
2021-02-20 21:00:00 9 5 Norte 14 Nordeste 0 941.1 -- 84
2021-02-20 20:00:00 9.7 6 Norte 14 Nordeste 0 941.3 -- 80
2021-02-20 19:00:00 11.1 8 Norte 17 Norte 0 940.6 -- 76
2021-02-20 18:00:00 13 8 Nordeste 18 Este 0 940.3 -- 69
2021-02-20 17:00:00 14.5 12 Este 19 Nordeste 0 940.4 -- 62
2021-02-20 16:00:00 15.4 9 Este 18 Este 0 940.7 -- 56
2021-02-20 15:00:00 16 10 Este 18 Este 0 941.3 -- 51
2021-02-20 14:00:00 16.1 9 Este 20 Este 0 942.3 -- 48
2021-02-20 13:00:00 15 10 Este 18 Este 0 943.3 -- 46
2021-02-20 12:00:00 14.9 8 Este 18 Sur 0 943.7 -- 41
2021-02-20 11:00:00 16.8 9 Sudoeste 23 Sudoeste 0 944 -- 25
2021-02-20 10:00:00 12.5 10 Sudoeste 17 Sudoeste 0 944 -- 31
2021-02-20 09:00:00 6 3 Oeste 18 Oeste 0 944 0.3 56
2021-02-20 08:00:00 4.8 7 Oeste 23 Oeste 0 943.9 -- 55
2021-02-20 07:00:00 4.3 5 Oeste 20 Oeste 0 943.8 -- 57
2021-02-20 06:00:00 5.1 7 Oeste 15 Oeste 0 943.7 -- 55
2021-02-20 05:00:00 4.7 5 Oeste 19 Sudoeste 0 943.4 -- 58
2021-02-20 04:00:00 6.3 8 Sudoeste 19 Oeste 0 943.8 -0.8 51
2021-02-20 03:00:00 6.5 12 Oeste 18 Sudoeste 0 944.1 -- 53
2021-02-20 02:00:00 4.5 0 Calma 13 Sudoeste 0 944.5 -- 67
2021-02-20 01:00:00 6.7 5 Sudoeste 16 Sudoeste 0 944.6 -- 56
2021-02-20 00:00:00 6.9 4 Oeste 16 Sudoeste 0 945.1 -- 56
2021-02-19 23:00:00 9.5 8 Sudoeste 17 Sudoeste 0 945.2 0.3 47
2021-02-19 22:00:00 12.7 12 Oeste 19 Sudoeste 0 945.1 -- 36
2021-02-19 21:00:00 13.2 12 Oeste 22 Oeste 0 945.1 -- 34
2021-02-19 20:00:00 14.6 13 Oeste 21 Oeste 0 944.9 -- 32
2021-02-19 19:00:00 15.5 8 Oeste 16 Sudoeste 0 944.4 -- 31
2021-02-19 18:00:00 18.7 6 Sudoeste 21 Sur 0 944.3 -- 25
2021-02-19 17:00:00 20 10 Sur 24 Sur 0 943.9 -1 28
2021-02-19 16:00:00 21.2 12 Sur 27 Sudoeste 0 943.9 -- 23
2021-02-19 15:00:00 22 9 Sur 27 Sur 0 944.1 -- 22
2021-02-19 14:00:00 21.1 12 Este 21 Este 0 944.9 -- 26
2021-02-19 13:00:00 20.1 13 Este 20 Este 0 945.9 -- 29
2021-02-19 12:00:00 20.4 7 Este 21 Oeste 0 946.5 -- 26
2021-02-19 11:00:00 18.4 9 Sudoeste 16 Sudoeste 0 946.7 -- 26
2021-02-19 10:00:00 13.9 8 Sudoeste 14 Oeste 0 946.7 -- 38
2021-02-19 09:00:00 8.1 11 Oeste 27 Oeste 0 946.6 -- 51
2021-02-19 08:00:00 5.5 16 Oeste 27 Oeste 0 946.2 -- 57
2021-02-19 07:00:00 5.6 18 Oeste 26 Sudoeste 0 946.2 -- 55
2021-02-19 06:00:00 5.7 17 Oeste 24 Oeste 0 946 -- 55
2021-02-19 05:00:00 6 12 Oeste 25 Oeste 0 945.6 -- 56
2021-02-19 04:00:00 6.5 10 Oeste 24 Oeste 0 945.6 -- 55
2021-02-19 03:00:00 7.2 17 Oeste 26 Oeste 0 945.7 -- 52
2021-02-19 02:00:00 7.6 13 Oeste 26 Oeste 0 945.8 -- 49
2021-02-19 01:00:00 8.5 17 Oeste 27 Oeste 0 945.9 -- 44
2021-02-19 00:00:00 9.7 14 Oeste 21 Oeste 0 946.1 -- 40
2021-02-18 23:00:00 10.1 14 Oeste 22 Oeste 0 946.1 -- 39
2021-02-18 22:00:00 11.6 7 Oeste 14 Oeste 0 945.6 -- 34
2021-02-18 21:00:00 10.6 4 Oeste 7 Nordeste 0 945.3 -- 43
2021-02-18 20:00:00 12.4 5 Este 9 Este 0 944.8 -- 38
2021-02-18 19:00:00 14.3 4 Noroeste 9 Noroeste 0 944 -- 41
2021-02-18 18:00:00 17.6 5 Nordeste 17 Nordeste 0 943.4 -- 32
2021-02-18 17:00:00 18.9 9 Nordeste 17 Este 0 943.1 -- 28
2021-02-18 16:00:00 19.6 9 Este 19 Este 0 942.9 -- 25
2021-02-18 15:00:00 19.6 10 Este 20 Este 0 942.9 -- 28
2021-02-18 14:00:00 19.9 9 Este 15 Este 0 943.5 -- 30
2021-02-18 13:00:00 18.8 9 Este 15 Este 0 944.2 -- 36
2021-02-18 12:00:00 17.9 7 Este 14 Nordeste 0 944.6 -- 29
2021-02-18 11:00:00 15.9 4 Este 12 Sudoeste 0 944.8 -- 37
2021-02-18 10:00:00 10.8 9 Sudoeste 21 Sudoeste 0 944.8 -- 43
2021-02-18 09:00:00 5.6 11 Sudoeste 17 Oeste 0 944.8 -- 55
2021-02-18 08:00:00 3.2 12 Oeste 20 Oeste 0 944.4 -- 64
2021-02-18 07:00:00 3.3 10 Oeste 19 Oeste 0 944.3 -- 66
2021-02-18 06:00:00 2.4 3 Noroeste 24 Oeste 0 944.1 -- 74
2021-02-18 05:00:00 3.1 8 Oeste 17 Oeste 0 944.4 -- 74
2021-02-18 04:00:00 3.4 6 Oeste 19 Sudoeste 0 944.7 -- 73
2021-02-18 03:00:00 5 14 Oeste 20 Oeste 0 945.1 -- 66
2021-02-18 02:00:00 4.8 0 Calma 19 Oeste 0 945.5 -- 71
2021-02-18 01:00:00 6.6 12 Oeste 20 Oeste 0 945.8 -- 62
2021-02-18 00:00:00 5.9 3 Noroeste 12 Oeste 0 946 -- 68
2021-02-17 23:00:00 6.8 3 Oeste 13 Sudoeste 0 946.4 -- 66
2021-02-17 22:00:00 9.2 6 Oeste 12 Oeste 0 946.3 -- 59
2021-02-17 21:00:00 11.5 8 Oeste 11 Oeste 0 946.3 -- 53
2021-02-17 20:00:00 10.8 5 Noroeste 8 Noroeste 0 946.4 -- 59
2021-02-17 19:00:00 14.9 4 Norte 14 Este 0 946.2 -- 48
2021-02-17 18:00:00 18 9 Nordeste 16 Nordeste 0 946 -- 35
2021-02-17 17:00:00 19.8 9 Nordeste 17 Nordeste 0 946 -- 29
2021-02-17 16:00:00 20.4 9 Este 19 Este 0 946.2 -- 26
2021-02-17 15:00:00 21.6 9 Este 18 Este 0 946.7 -- 23
2021-02-17 14:00:00 21.2 11 Este 21 Este 0 947.5 -- 22
2021-02-17 13:00:00 20.9 8 Este 15 Este 0 948.5 -- 26
2021-02-17 12:00:00 19.8 6 Este 12 Sudeste 0 949.1 -- 26
2021-02-17 11:00:00 18.5 4 Nordeste 11 Sudoeste 0 949.6 -- 26
2021-02-17 10:00:00 13.7 10 Oeste 21 Sudoeste 0 949.7 -- 38
2021-02-17 09:00:00 9.1 9 Oeste 20 Oeste 0 949.7 -- 44
2021-02-17 08:00:00 6.4 13 Oeste 23 Oeste 0 949.5 -- 48
2021-02-17 07:00:00 7.1 16 Oeste 25 Oeste 0 949.4 -- 45
2021-02-17 06:00:00 6.9 12 Oeste 26 Oeste 0 949.3 -- 46
2021-02-17 05:00:00 7.2 15 Oeste 23 Sudoeste 0 949.5 -- 46
2021-02-17 04:00:00 5.7 3 Noroeste 24 Oeste 0 949.9 -- 60
2021-02-17 03:00:00 7.5 15 Oeste 28 Sudoeste 0 950.2 -- 49
2021-02-17 02:00:00 7.4 14 Oeste 24 Oeste 0 950.4 -- 51
2021-02-17 01:00:00 7.4 12 Oeste 22 Oeste 0 950.8 -- 54
2021-02-17 00:00:00 7.8 9 Oeste 23 Oeste 0 951.1 -- 54
2021-02-16 23:00:00 8.3 12 Sudoeste 21 Oeste 0 951.1 -- 56
2021-02-16 22:00:00 9 9 Oeste 21 Sudoeste 0 951.2 -- 58
2021-02-16 21:00:00 9.3 9 Oeste 14 Sudoeste 0 951.1 -- 62
2021-02-16 20:00:00 9.2 5 Oeste 8 Oeste 0 950.9 -- 65
2021-02-16 19:00:00 11.8 4 Noroeste 9 Noroeste 0 950.8 -- 59
2021-02-16 18:00:00 16.2 4 Este 10 Este 0 950.4 -- 44
2021-02-16 17:00:00 17.1 5 Este 13 Este 0 950.6 -- 41
2021-02-16 16:00:00 16.8 6 Este 14 Sudeste 0 950.8 -- 40
2021-02-16 15:00:00 16.5 7 Este 14 Este 0 951.4 -- 42
2021-02-16 14:00:00 15.8 5 Este 13 Este 0 952.1 -- 46
2021-02-16 13:00:00 14.3 5 Sudeste 13 Sudeste 0 953 -- 49
2021-02-16 12:00:00 11.8 6 Este 16 Este 0 953.8 -- 57
2021-02-16 11:00:00 10.5 7 Nordeste 14 Nordeste 0 953.8 -- 59
2021-02-16 10:00:00 6.8 8 Sudoeste 15 Sudoeste 0 953.7 -- 67
2021-02-16 09:00:00 2.4 10 Oeste 17 Oeste 0 953.8 -- 79
2021-02-16 08:00:00 0.8 9 Oeste 15 Oeste 0 953.8 -- 85
2021-02-16 07:00:00 0.6 8 Oeste 14 Oeste 0 954.1 -- 90
2021-02-16 06:00:00 -0.2 3 Oeste 9 Sudoeste 0 954.6 -- 89
2021-02-16 05:00:00 0.4 3 Oeste 7 Oeste 0 954.8 -- 86
2021-02-16 04:00:00 1.9 2 Nordeste 11 Sudoeste 0 955 -- 81
2021-02-16 03:00:00 4 9 Sudoeste 15 Sudoeste 0 955.5 -- 74
2021-02-16 02:00:00 4.2 8 Sudoeste 13 Sudoeste 0 956 -- 74
2021-02-16 01:00:00 4.5 7 Sudoeste 15 Oeste 0 956.5 -- 75
2021-02-16 00:00:00 5.4 8 Sudoeste 17 Oeste 0 956.9 -- 74
2021-02-15 23:00:00 6.5 9 Oeste 18 Sudoeste 0 957.3 -- 74
2021-02-15 22:00:00 7.6 11 Sudoeste 21 Oeste 0 957.5 -- 71
2021-02-15 21:00:00 8.2 10 Oeste 19 Sudoeste 0 957.5 -- 72
2021-02-15 20:00:00 9.1 8 Oeste 18 Sudoeste 0 957 -- 68
2021-02-15 19:00:00 10.4 6 Sudoeste 17 Sudoeste 0 956.6 -- 59
2021-02-15 18:00:00 12.5 11 Sudoeste 20 Sur 0 956.4 -- 54
2021-02-15 17:00:00 13.7 12 Sur 24 Sur 0 956.4 -- 50
2021-02-15 16:00:00 14.1 12 Sur 28 Sudoeste 0 956.9 -- 50
2021-02-15 15:00:00 14.5 12 Sur 24 Sur 0 957.1 -- 48
2021-02-15 14:00:00 14.3 10 Sur 28 Sur 0 957.6 -- 48
2021-02-15 13:00:00 12.8 10 Sur 22 Sur 0 958.4 -- 54
2021-02-15 12:00:00 12.3 9 Sur 22 Sur 0 958.9 -- 57
2021-02-15 11:00:00 11.6 12 Sur 22 Sur 0 958.9 -- 59
2021-02-15 10:00:00 9.8 8 Sudoeste 17 Sudoeste 0 958.7 -- 72
2021-02-15 09:00:00 9.1 7 Sudoeste 15 Sudoeste 0 958.3 -- 75
2021-02-15 08:00:00 8.8 8 Sudoeste 15 Sudoeste 0 957.6 -- 79
2021-02-15 07:00:00 8.7 6 Sudoeste 11 Oeste 0 957.3 -- 80
2021-02-15 06:00:00 8.9 7 Oeste 13 Sudoeste 0 957.5 -- 78
2021-02-15 05:00:00 8.9 8 Sudoeste 12 Oeste 0 957.4 -- 77
2021-02-15 04:00:00 8.9 5 Sur 11 Sudoeste 0 957.7 -- 76
2021-02-15 03:00:00 8.5 6 Sudoeste 15 Oeste 0 957.9 -- 78
2021-02-15 02:00:00 9 8 Oeste 21 Oeste 0 958 -- 76
2021-02-15 01:00:00 9 11 Oeste 19 Oeste 0 958 -- 77
2021-02-15 00:00:00 9.6 6 Sudoeste 12 Sudoeste 0 958.1 -- 77
2021-02-14 23:00:00 9.7 3 Norte 11 Este 0 958 -- 77
2021-02-14 22:00:00 10 6 Este 11 Nordeste 0 957.8 -- 74
2021-02-14 21:00:00 10.2 5 Nordeste 13 Nordeste 0 957.5 -- 72
2021-02-14 20:00:00 10.6 6 Nordeste 18 Este 0 957 -- 69
2021-02-14 19:00:00 11.5 6 Este 16 Este 0 956.3 1.7 69
2021-02-14 18:00:00 12.7 9 Este 23 Este 0 955.6 1 62
2021-02-14 17:00:00 14.1 12 Este 21 Este 0 955.1 -- 55
2021-02-14 16:00:00 14.8 10 Este 20 Este 0 954.6 -- 52
2021-02-14 15:00:00 15.4 9 Este 22 Este 0 954.6 -- 49
2021-02-14 14:00:00 15.9 9 Este 24 Este 0 954.7 -- 47
2021-02-14 13:00:00 15.9 12 Este 21 Este 0 955 -- 42
2021-02-14 12:00:00 15.6 7 Este 18 Este 0 955.4 -- 43
2021-02-14 11:00:00 14.2 6 Este 12 Este 0 955.2 -- 45
2021-02-14 10:00:00 12.1 2 Sur 7 Sudeste 0 954.6 -- 51
2021-02-14 09:00:00 7.4 4 Oeste 18 Oeste 0 954.2 -- 68
2021-02-14 08:00:00 5.1 9 Oeste 16 Sudoeste 0 953.3 -- 75
2021-02-14 07:00:00 3.2 5 Oeste 10 Oeste 0 952.6 -- 81
2021-02-14 06:00:00 3.4 3 Sudoeste 8 Sudoeste 0 952.3 -- 79
2021-02-14 05:00:00 4.4 4 Oeste 10 Este 0 951.9 -- 75
2021-02-14 04:00:00 6.1 5 Noroeste 10 Noroeste 0 951.8 -- 67
2021-02-14 03:00:00 6.5 5 Noroeste 9 Noroeste 0 951.9 -- 65
2021-02-14 02:00:00 7.9 4 Noroeste 13 Sudoeste 0 951.9 -- 60
2021-02-14 01:00:00 7.5 4 Oeste 14 Sudoeste 0 951.7 -- 61
2021-02-14 00:00:00 9.1 3 Oeste 17 Oeste 0 951.5 -- 54
2021-02-13 23:00:00 9.3 8 Oeste 17 Oeste 0 951.7 -- 48
2021-02-13 22:00:00 8.3 2 Sudoeste 8 Sur 0 951.6 -- 48
2021-02-13 21:00:00 10.5 5 Oeste 14 Oeste 0 951 -- 39
2021-02-13 20:00:00 11.7 6 Noroeste 14 Oeste 0 950.4 -- 36
2021-02-13 19:00:00 12.6 9 Noroeste 13 Oeste 0 949.7 -- 44
2021-02-13 18:00:00 16.4 4 Sudeste 13 Sudeste 0 948.9 -- 32
2021-02-13 17:00:00 17.7 7 Este 17 Este 0 948.6 -- 29
2021-02-13 16:00:00 17.7 7 Nordeste 16 Nordeste 0 948.7 -- 29
2021-02-13 15:00:00 17.7 5 Este 17 Este 0 948.9 -- 31
2021-02-13 14:00:00 16.6 6 Nordeste 14 Este 0 949.5 -- 33
2021-02-13 13:00:00 16.5 8 Este 15 Nordeste 0 950.1 -- 36
2021-02-13 08:00:00 6.8 3 Oeste 9 Sudoeste 0 949.6 0.7 72
2021-02-13 07:00:00 8.1 2 Este 18 Oeste 0 949 -0.1 66
2021-02-13 06:00:00 9 5 Sudoeste 19 Sudoeste 0 948.9 -0.5 63
2021-02-13 05:00:00 8.3 9 Oeste 17 Sudoeste 0 948.9 -0.5 66
2021-02-13 04:00:00 9 10 Oeste 19 Oeste 0 949.1 -0.3 63
2021-02-13 03:00:00 7.4 10 Oeste 18 Oeste 0 949.4 0.2 71
2021-02-13 02:00:00 5.6 3 Oeste 12 Noroeste 0 949.4 0.6 77
2021-02-13 01:00:00 6.5 4 Sudoeste 11 Oeste 0 949.4 1.1 74
2021-02-13 00:00:00 6.9 6 Oeste 10 Sudoeste 0 949.2 1.5 71
2021-02-12 23:00:00 9 6 Oeste 21 Oeste 0 948.8 1.6 62
2021-02-12 22:00:00 10.3 9 Oeste 15 Oeste 0 948.3 1.8 55
2021-02-12 21:00:00 11.8 5 Sudoeste 22 Oeste 0 947.7 2 49
2021-02-12 20:00:00 10.4 5 Oeste 14 Oeste 0 947.2 2.3 53
2021-02-12 19:00:00 13 2 Norte 29 Noroeste 0 946.5 1.6 42
2021-02-12 18:00:00 15 8 Norte 30 Norte 0 945.7 1 36
2021-02-12 17:00:00 16.9 7 Norte 28 Oeste 0 944.9 0.2 32
2021-02-12 16:00:00 17.4 12 Noroeste 39 Oeste 0 944.9 0.2 31
2021-02-12 15:00:00 18.7 14 Oeste 41 Oeste 0 944.7 -0.3 27
2021-02-12 14:00:00 18.7 18 Oeste 42 Sudoeste 0 944.7 0 29
2021-02-12 13:00:00 18.9 22 Oeste 40 Sudoeste 0 944.7 0 31
2021-02-12 12:00:00 18.2 18 Sudoeste 37 Oeste 0 945 0.4 42
2021-02-12 11:00:00 16.9 20 Oeste 41 Oeste 0 944.7 0.7 46
2021-02-12 10:00:00 14 11 Sur 24 Sur 0 944.7 0.5 61
2021-02-12 09:00:00 11.7 9 Oeste 15 Oeste 0 944.6 -- 71
2021-02-12 08:00:00 11.5 10 Sudoeste 16 Sudoeste 0 944 -- 72
2021-02-12 07:00:00 11 8 Sudoeste 15 Sudoeste 0 944.2 -- 78
2021-02-12 06:00:00 10.8 7 Oeste 14 Oeste 0 944.3 -- 82
2021-02-12 05:00:00 9.1 4 Sudoeste 6 Sudoeste 0 944.2 -- 85
2021-02-12 04:00:00 10 5 Oeste 12 Noroeste 0 944.2 -- 82
2021-02-12 03:00:00 10.4 5 Oeste 21 Oeste 0 944.5 -- 77
2021-02-12 02:00:00 10.7 10 Oeste 19 Oeste 0 944.8 -- 76
2021-02-12 01:00:00 11.1 10 Oeste 17 Oeste 0 945.2 -- 75
2021-02-12 00:00:00 11.2 2 Oeste 10 Oeste 0 945.6 -- 76
2021-02-11 23:00:00 11.6 0 Calma 7 Noroeste 0 945.7 -- 74
2021-02-11 22:00:00 12.2 3 Oeste 6 Oeste 0 945.7 -- 72
2021-02-11 21:00:00 13.2 0 Calma 5 Noroeste 0 945.5 -- 68
2021-02-11 20:00:00 15.3 5 Norte 10 Noroeste 0 945.1 -- 60
2021-02-11 19:00:00 16.1 5 Noroeste 9 Nordeste 0 944.8 -- 58
2021-02-11 18:00:00 18.4 6 Este 18 Este 0 944.4 -- 49
2021-02-11 17:00:00 19.2 9 Este 18 Este 0 944.3 -- 48
2021-02-11 16:00:00 19.8 8 Este 18 Nordeste 0 944.1 -- 48
2021-02-11 15:00:00 19.7 9 Nordeste 21 Nordeste 0 944.3 -- 49
2021-02-11 14:00:00 19.8 10 Nordeste 20 Este 0 944.9 -- 48
2021-02-11 13:00:00 19.6 7 Nordeste 19 Este 0 945.5 -- 50
2021-02-11 12:00:00 19.7 4 Este 13 Sudoeste 0 945.8 -- 48
2021-02-11 11:00:00 16.9 6 Sudoeste 17 Sudoeste 0 946 -- 58
2021-02-11 10:00:00 14.9 6 Sudoeste 22 Sudoeste 0 945.9 -- 65
2021-02-11 09:00:00 12.6 12 Oeste 18 Oeste 0 945.6 -- 73
2021-02-11 08:00:00 9.7 8 Oeste 15 Oeste 0 945 -- 82
2021-02-11 07:00:00 8 5 Oeste 9 Oeste 0 944.8 -- 83
2021-02-11 06:00:00 9.5 4 Sudeste 15 Oeste 0 944.6 -- 78
2021-02-11 05:00:00 8.7 5 Oeste 10 Oeste 0 944.5 -- 84
2021-02-11 04:00:00 9.8 3 Sudeste 14 Sudoeste 0 944.5 -- 75
2021-02-11 03:00:00 11.3 6 Oeste 19 Sudoeste 0 944.4 -- 67
2021-02-11 02:00:00 12.7 14 Sudoeste 21 Sudoeste 0 944.4 -- 60
2021-02-11 01:00:00 10.1 9 Oeste 16 Oeste 0 944.1 -- 51
2021-02-11 00:00:00 10.6 10 Oeste 18 Sudoeste 0 943.8 -- 50
2021-02-10 23:00:00 7.2 3 Noroeste 13 Oeste 0 943.7 -- 54
2021-02-10 22:00:00 9.6 9 Oeste 17 Oeste 0 943.4 -- 42
2021-02-10 21:00:00 9 8 Oeste 14 Oeste 0 942.8 -- 51
2021-02-10 20:00:00 9.9 5 Noroeste 12 Este 0 942.1 -- 46
2021-02-10 19:00:00 13.2 5 Oeste 24 Sudoeste 0 940.8 -- 36
2021-02-10 18:00:00 15.3 6 Noroeste 18 Norte 0 939.5 -- 29
2021-02-10 17:00:00 16.8 7 Nordeste 40 Sudoeste 0 938.6 -- 28
2021-02-10 16:00:00 17.7 12 Oeste 52 Oeste 0 937.8 -- 35
2021-02-10 15:00:00 17.7 24 Oeste 41 Oeste 0 937.5 -- 42
2021-02-10 14:00:00 17.4 6 Noroeste 22 Norte 0 937.2 -- 45
2021-02-10 13:00:00 15.7 9 Nordeste 31 Sudoeste 0 937.1 -- 51
2021-02-10 12:00:00 18 18 Oeste 47 Sudoeste 0 936.7 -- 44
2021-02-10 11:00:00 16.2 15 Sudoeste 41 Sudoeste 0 936.2 -- 47
2021-02-10 10:00:00 14.6 17 Sudoeste 34 Sudoeste 0 935.3 -- 50
2021-02-10 09:00:00 12.4 15 Sudoeste 36 Oeste 0 935.3 -- 54
2021-02-10 08:00:00 12.2 17 Oeste 43 Sudoeste 0 933.7 -- 53
2021-02-10 07:00:00 11 12 Sudoeste 46 Oeste 0 933 -- 50
2021-02-10 06:00:00 11.5 19 Oeste 69 Oeste 0 933.3 -- 44
2021-02-10 05:00:00 12.2 25 Oeste 53 Sudoeste 0 932.9 -- 43
2021-02-10 04:00:00 12.2 19 Oeste 51 Sudoeste 0 932.6 -- 47
2021-02-10 03:00:00 11.7 18 Oeste 54 Oeste 0 933.4 -- 44
2021-02-10 02:00:00 7.9 7 Oeste 13 Sudoeste 0 933.5 -- 87
2021-02-10 01:00:00 8.5 4 Oeste 12 Sudoeste 0.2 933.5 -- 87
2021-02-10 00:00:00 9.6 4 Noroeste 10 Oeste 0 933.5 -- 81
2021-02-09 23:00:00 10.5 6 Oeste 17 Sur 0 933.6 -- 73
2021-02-09 22:00:00 11.4 8 Sudoeste 19 Sudoeste 0 933.4 -- 69
2021-02-09 21:00:00 12.2 11 Oeste 23 Sudoeste 0 933.3 -- 64
2021-02-09 20:00:00 13.1 9 Sudoeste 23 Sudoeste 0 933 -- 60
2021-02-09 19:00:00 13.5 12 Sudoeste 33 Oeste 0 932 -- 54
2021-02-09 18:00:00 15.1 18 Sudoeste 43 Sudoeste 0 931.6 -- 47
2021-02-09 17:00:00 15.7 21 Sudoeste 46 Oeste 0 931.2 -- 43
2021-02-09 16:00:00 16.4 25 Sudoeste 49 Sudoeste 0 931.6 -- 40
2021-02-09 15:00:00 15.5 18 Sudoeste 44 Sudoeste 0 932.8 -- 40
2021-02-09 14:00:00 13.9 15 Sudoeste 40 Sudoeste 0 933.9 -- 46
2021-02-09 13:00:00 13.9 18 Sudoeste 36 Oeste 0 934.6 -- 45
2021-02-09 12:00:00 10.9 3 Sudoeste 23 Sudoeste 0 935.6 -- 63
2021-02-09 11:00:00 9.6 11 Sudoeste 24 Sudoeste 0 935.9 -- 66
2021-02-09 10:00:00 7.4 3 Oeste 12 Sur 0 936.5 -- 70
2021-02-09 09:00:00 5.7 8 Sudoeste 18 Sudoeste 0 936.4 -- 70
2021-02-09 08:00:00 5.7 13 Oeste 20 Oeste 0 936.5 -- 65
2021-02-09 07:00:00 6.1 12 Oeste 17 Oeste 0 936.3 -- 65
2021-02-09 06:00:00 4.9 7 Oeste 13 Oeste 0 936.2 -- 65
2021-02-09 05:00:00 6.1 7 Oeste 16 Oeste 0 935.5 -- 60
2021-02-09 04:00:00 7 10 Oeste 18 Noroeste 0 935.4 -- 57
2021-02-09 03:00:00 8.1 7 Oeste 21 Sudoeste 0 935.5 -- 53
2021-02-09 02:00:00 7.1 5 Sur 12 Oeste 0 935.2 -- 60
2021-02-09 01:00:00 8.2 3 Sur 22 Sudoeste 0 935.3 -- 56
2021-02-09 00:00:00 10.4 10 Oeste 38 Oeste 0 934.9 -- 48
2021-02-08 23:00:00 10.4 16 Oeste 43 Oeste 0 934.7 -- 47
2021-02-08 22:00:00 10.7 12 Oeste 41 Oeste 0 934.4 -- 52
2021-02-08 21:00:00 10.2 11 Oeste 50 Oeste 0 933.8 -- 53
2021-02-08 20:00:00 9.9 23 Sudoeste 52 Sudoeste 0 933.5 -- 53
2021-02-08 19:00:00 10.8 20 Oeste 63 Oeste 0 932.6 -- 43
2021-02-08 18:00:00 10.8 26 Oeste 55 Sudoeste 0 931.8 -- 45
2021-02-08 17:00:00 11.9 27 Oeste 63 Oeste 0 931.1 -- 50
2021-02-08 16:00:00 13.9 31 Oeste 56 Sudoeste 0 930.8 -- 36
2021-02-08 15:00:00 14.5 23 Oeste 63 Oeste 0 930.6 -- 33
2021-02-08 14:00:00 14.5 20 Oeste 50 Oeste 0 930.8 -- 34
2021-02-08 13:00:00 13.8 18 Oeste 46 Oeste 0 931.3 -- 33
2021-02-08 12:00:00 13.3 19 Oeste 56 Oeste 0 931.9 -- 35
2021-02-08 11:00:00 13.7 28 Oeste 51 Oeste 0 931.3 -- 33
2021-02-08 10:00:00 13.4 10 Sudoeste 35 Oeste 0 930.6 -- 55
2021-02-08 09:00:00 10.4 15 Sudoeste 31 Sudoeste 0 930.1 -- 70
2021-02-08 08:00:00 8.9 12 Sudoeste 22 Oeste 0 930.5 -- 69
2021-02-08 07:00:00 4.9 2 Sur 8 Noroeste 0 930.6 -- 81
2021-02-08 06:00:00 5.6 3 Norte 11 Sudeste 0 931.7 -- 77
2021-02-08 05:00:00 7.2 8 Sur 27 Sudoeste 0 932.9 -- 70
2021-02-08 04:00:00 7.4 17 Sudoeste 33 Sudoeste 0 932.9 -- 67
2021-02-08 03:00:00 8.1 16 Sudoeste 40 Sudoeste 0 933.8 -- 61
2021-02-08 02:00:00 9.2 20 Sudoeste 36 Oeste 0 933.9 -- 56
2021-02-08 01:00:00 9.4 15 Sudoeste 39 Sudoeste 0 934.1 -- 56
2021-02-08 00:00:00 10 20 Sudoeste 33 Sudoeste 0 933.9 -- 52
2021-02-07 23:00:00 10.1 12 Sur 26 Sur 0 934.3 -- 50
2021-02-07 22:00:00 10.5 8 Sudoeste 22 Oeste 0 934.2 -- 50
2021-02-07 21:00:00 10.2 8 Oeste 30 Oeste 0 934 -- 50
2021-02-07 20:00:00 9.9 9 Oeste 32 Oeste 0 934 -- 48
2021-02-07 19:00:00 10.2 12 Sudoeste 25 Oeste 0 933.6 -- 46
2021-02-07 18:00:00 11 10 Sudoeste 29 Oeste 0 933.3 -- 42
2021-02-07 17:00:00 12.7 11 Oeste 32 Sudoeste 0 933 -- 42
2021-02-07 16:00:00 13.5 10 Oeste 32 Oeste 0 932.9 -- 41
2021-02-07 15:00:00 14.1 15 Oeste 33 Oeste 0 932.6 -- 39
2021-02-07 14:00:00 14.7 14 Sudoeste 30 Oeste 0 932.5 -- 37
2021-02-07 13:00:00 13.7 10 Sudoeste 28 Oeste 0 933 -- 42
2021-02-07 12:00:00 13.2 8 Oeste 27 Oeste 0 933.5 -- 45
2021-02-07 11:00:00 12.6 10 Noroeste 23 Oeste 0 933.2 -- 49
2021-02-07 10:00:00 10.6 7 Sudoeste 17 Sudoeste 0 933 -- 63
2021-02-07 09:00:00 6.3 10 Sudoeste 16 Oeste 0 932.6 -- 74
2021-02-07 08:00:00 5.6 7 Sudoeste 14 Oeste 0 931.9 -- 76
2021-02-07 07:00:00 6 7 Oeste 15 Oeste 0 931.7 -- 75
2021-02-07 06:00:00 4.2 7 Oeste 12 Oeste 0 931.4 -- 83
2021-02-07 05:00:00 4.4 4 Noroeste 10 Noroeste 0 931.2 -- 82
2021-02-07 04:00:00 3.7 6 Noroeste 11 Noroeste 0 931 -- 81
2021-02-07 03:00:00 6.7 8 Oeste 17 Oeste 0 931 -- 72
2021-02-07 02:00:00 7.3 10 Sudoeste 26 Sudoeste 0 931.1 -- 70
2021-02-07 01:00:00 6.1 10 Sudoeste 19 Sudoeste 0 931.4 -- 72
2021-02-07 00:00:00 6.2 6 Sur 22 Sudoeste 0 931.3 -- 68
2021-02-06 23:00:00 7.4 9 Oeste 17 Sudoeste 0 931.4 -- 61
2021-02-06 22:00:00 8.9 9 Oeste 13 Oeste 0 931.3 -- 55
2021-02-06 21:00:00 9 5 Oeste 12 Oeste 0 930.7 -- 53
2021-02-06 20:00:00 11.3 8 Oeste 22 Noroeste 0 930.3 -- 42
2021-02-06 19:00:00 11.8 5 Oeste 28 Noroeste 0 929.7 -- 40
2021-02-06 18:00:00 13.6 11 Oeste 30 Oeste 0 928.9 -- 33
2021-02-06 17:00:00 14.5 6 Nordeste 25 Sudoeste 0 928.5 -- 43
2021-02-06 16:00:00 16.8 13 Sudoeste 24 Sur 0 928.1 -- 31
2021-02-06 15:00:00 16.4 10 Sur 29 Sur 0 928.1 -- 33
2021-02-06 14:00:00 16 18 Sudoeste 31 Sudoeste 0 928.6 -- 36
2021-02-06 13:00:00 15.9 14 Sudoeste 35 Sudoeste 0 929.4 -- 39
2021-02-06 12:00:00 14 19 Oeste 35 Oeste 0 929.9 -- 48
2021-02-06 11:00:00 13.2 12 Sudoeste 22 Sudoeste 0 930 -- 53
2021-02-06 10:00:00 11.6 9 Sudoeste 16 Sudoeste 0 930 -- 59
2021-02-06 09:00:00 7.1 8 Sudoeste 21 Oeste 0 929.9 -- 75
2021-02-06 08:00:00 5.6 10 Oeste 19 Sudoeste 0 929.7 -- 81
2021-02-06 07:00:00 6.2 10 Oeste 16 Oeste 0 929.2 -- 84
2021-02-06 06:00:00 5.7 10 Oeste 14 Oeste 0 929.1 -- 90
2021-02-06 05:00:00 5.4 4 Noroeste 14 Sudoeste 0 929.3 -- 87
2021-02-06 04:00:00 7.3 6 Oeste 13 Oeste 0.2 929.8 -- 89
2021-02-06 03:00:00 6.9 5 Sudoeste 10 Oeste 0 929.8 -- 89
2021-02-06 02:00:00 8 2 Este 9 Nordeste 0 929.6 -- 88
2021-02-06 01:00:00 9.1 4 Oeste 10 Nordeste 0 930.3 -- 84
2021-02-06 00:00:00 10.2 4 Noroeste 17 Oeste 0 930.3 -- 75
2021-02-05 23:00:00 9.6 3 Oeste 9 Noroeste 0 930.2 -- 79
2021-02-05 22:00:00 10.3 4 Oeste 15 Sudeste 0 929.6 -- 77
2021-02-05 21:00:00 10.4 5 Sur 13 Norte 0 929.9 -- 74
2021-02-05 20:00:00 10.5 6 Norte 15 Norte 0 929.8 -- 74
2021-02-05 19:00:00 11.1 7 Norte 15 Nordeste 0 929.6 -- 73
2021-02-05 18:00:00 12.7 9 Este 15 Nordeste 0 929.5 -- 71
2021-02-05 17:00:00 13.4 9 Este 16 Nordeste 0 929.8 -- 67
2021-02-05 16:00:00 14 8 Este 16 Nordeste 0 930.5 -- 66
2021-02-05 15:00:00 13.5 8 Este 15 Este 0 930.8 -- 70
2021-02-05 14:00:00 12.7 6 Nordeste 15 Este 0 931.9 -- 71
2021-02-05 13:00:00 12.8 7 Nordeste 15 Este 0 933.2 -- 71
2021-02-05 12:00:00 11.8 9 Este 15 Este 0 934.2 -- 76
2021-02-05 11:00:00 10.7 3 Noroeste 8 Nordeste 0 934.6 -- 80
2021-02-05 10:00:00 9.9 4 Nordeste 12 Nordeste 0 934.7 -- 83
2021-02-05 09:00:00 9.1 5 Norte 13 Nordeste 0 934.4 -- 86
2021-02-05 08:00:00 7.9 5 Noroeste 13 Noroeste 0 934.4 -- 86
2021-02-05 07:00:00 7.9 4 Noroeste 14 Norte 0 934.3 -- 85
2021-02-05 06:00:00 5.1 3 Noroeste 5 Noroeste 0 934.3 -- 89
2021-02-05 05:00:00 5.7 3 Noroeste 6 Sudeste 0 934.6 -- 87
2021-02-05 04:00:00 7.1 4 Noroeste 6 Noroeste 0 935.1 -- 83
2021-02-05 03:00:00 8.8 4 Norte 12 Norte 0 935.5 -- 79
2021-02-05 02:00:00 7.7 4 Nordeste 10 Norte 0 935.6 -- 85
2021-02-05 01:00:00 7.1 4 Noroeste 10 Noroeste 0 936.2 -- 84
2021-02-05 00:00:00 6.7 4 Noroeste 6 Noroeste 0 936.2 -- 85
2021-02-04 23:00:00 7.7 4 Noroeste 6 Noroeste 0 936.2 -- 84
2021-02-04 22:00:00 9.2 4 Sudoeste 6 Sudoeste 0 936.6 -- 83
2021-02-04 21:00:00 10.9 3 Sur 9 Sudeste 0 936.4 -- 75
2021-02-04 20:00:00 14.3 8 Oeste 14 Oeste 0 936.3 -- 53
2021-02-04 19:00:00 13.6 4 Oeste 7 Oeste 0 936.3 -- 66
2021-02-04 18:00:00 16.2 3 Nordeste 12 Nordeste 0 935.9 -- 55
2021-02-04 17:00:00 19.2 2 Sudeste 8 Sudeste 0 935.6 -- 41
2021-02-04 16:00:00 19.7 4 Sudeste 11 Sudeste 0 935.7 -- 40
2021-02-04 15:00:00 19.8 6 Este 15 Este 0 935.9 -- 39
2021-02-04 14:00:00 20.3 8 Este 17 Sudoeste 0 936.4 -- 36
2021-02-04 13:00:00 18.9 9 Oeste 18 Oeste 0 937.4 -- 35
2021-02-04 12:00:00 17.7 11 Sur 17 Sur 0 938.4 -- 37
2021-02-04 11:00:00 14.4 6 Sudeste 12 Sudeste 0.2 938.9 -- 53
2021-02-04 10:00:00 9.9 5 Oeste 16 Oeste 0 939.2 -- 64
2021-02-04 09:00:00 8.3 9 Sudoeste 21 Oeste 0 939 -- 65
2021-02-04 08:00:00 7.7 13 Oeste 22 Oeste 0 938.7 -- 66
2021-02-04 07:00:00 8.1 11 Oeste 17 Oeste 0 938.7 -- 68
2021-02-04 06:00:00 6.9 4 Noroeste 11 Sudoeste 0 938.2 -- 76
2021-02-04 05:00:00 8.4 8 Oeste 15 Oeste 0 938.5 -- 68
2021-02-04 04:00:00 8.1 6 Sudoeste 14 Oeste 0 938.9 -- 66
2021-02-04 03:00:00 7.7 3 Oeste 15 Oeste 0 939.3 -- 71
2021-02-04 02:00:00 7.9 0 Calma 15 Oeste 0 939.5 -- 67
2021-02-04 01:00:00 8.4 7 Oeste 14 Oeste 0 939.9 -- 64
2021-02-04 00:00:00 7.3 3 Sudoeste 11 Oeste 0 940.1 -- 69
2021-02-03 23:00:00 7.8 3 Noroeste 10 Noroeste 0 940 -- 69
2021-02-03 22:00:00 8.3 4 Oeste 11 Oeste 0 940.1 -- 69
2021-02-03 21:00:00 8.6 4 Sudoeste 9 Noroeste 0 940.5 -- 67
2021-02-03 20:00:00 9.1 4 Sudoeste 8 Sudoeste 0 940.5 -- 72
2021-02-03 19:00:00 10.9 3 Oeste 6 Noroeste 0 940.1 -- 70
2021-02-03 18:00:00 13.4 2 Noroeste 4 Este 0 939.9 -- 62
2021-02-03 17:00:00 15.2 3 Sudeste 9 Este 0 940 -- 55
2021-02-03 16:00:00 15.5 6 Este 12 Nordeste 0 940.2 -- 52
2021-02-03 15:00:00 15.1 5 Nordeste 11 Este 0 940.4 -- 55
2021-02-03 14:00:00 14.5 5 Nordeste 15 Este 0 940.9 -- 54
2021-02-03 13:00:00 14.7 9 Este 16 Sudeste 0 941.4 -- 53
2021-02-03 12:00:00 15.1 7 Sudeste 13 Sudeste 0 942.2 -- 53
2021-02-03 11:00:00 13.5 5 Sudeste 10 Sudeste 0 942.4 -- 54
2021-02-03 10:00:00 11.9 3 Este 6 Este 0 942.2 -- 60
2021-02-03 09:00:00 4.3 3 Noroeste 5 Oeste 0 942 -- 78
2021-02-03 08:00:00 3.5 2 Nordeste 5 Sudoeste 0 941.5 -- 76
2021-02-03 07:00:00 4.3 3 Noroeste 11 Oeste 0 941.2 -- 70
2021-02-03 06:00:00 4.6 5 Noroeste 10 Oeste 0 941.5 -- 70
2021-02-03 05:00:00 4.9 3 Noroeste 9 Noroeste 0 941.6 -- 70
2021-02-03 04:00:00 5.7 3 Noroeste 13 Oeste 0 941.8 -- 66
2021-02-03 03:00:00 5.8 2 Sudoeste 11 Oeste 0 942.1 -- 65
2021-02-03 02:00:00 6 3 Oeste 6 Oeste 0 942.3 -- 67
2021-02-03 01:00:00 8.1 4 Oeste 14 Sudoeste 0 942.4 -- 60
2021-02-03 00:00:00 9.5 8 Oeste 23 Oeste 0 942.3 -- 58
2021-02-02 23:00:00 9.5 9 Sudoeste 17 Oeste 0 942.5 -- 66
2021-02-02 22:00:00 10.4 12 Oeste 20 Oeste 0 942.5 -- 66
2021-02-02 21:00:00 10.1 5 Sudoeste 10 Sudoeste 0 942.6 -- 71
2021-02-02 20:00:00 11 5 Oeste 11 Noroeste 0 942.4 -- 68
2021-02-02 19:00:00 13.4 6 Noroeste 12 Noroeste 0 942.2 -- 62
2021-02-02 18:00:00 16.9 4 Noroeste 11 Nordeste 0 941.9 -- 52
2021-02-02 17:00:00 18.7 6 Este 16 Nordeste 0 941.8 -- 45
2021-02-02 16:00:00 19.3 9 Este 18 Este 0 941.9 -- 43
2021-02-02 15:00:00 20.3 9 Este 17 Sudoeste 0 942.2 -- 41
2021-02-02 14:00:00 20.5 10 Sudoeste 17 Sur 0 942.7 -- 31
2021-02-02 13:00:00 20.1 6 Sudoeste 18 Sur 0 943.7 -- 36
2021-02-02 12:00:00 18.2 8 Sudoeste 14 Sudoeste 0 944.7 -- 43
2021-02-02 11:00:00 16.4 5 Sur 15 Oeste 0 945.1 -- 47
2021-02-02 10:00:00 12.1 8 Sudoeste 20 Oeste 0 945 -- 60
2021-02-02 09:00:00 8.6 9 Oeste 23 Oeste 0 944.6 -- 71
2021-02-02 08:00:00 7.8 6 Oeste 18 Oeste 0 944.2 -- 73
2021-02-02 07:00:00 8.4 11 Oeste 24 Sudoeste 0 943.9 -- 71
2021-02-02 06:00:00 8.3 17 Sudoeste 29 Sudoeste 0 943.6 -- 73
2021-02-02 05:00:00 8.3 6 Sur 22 Oeste 0 943.7 -- 73
2021-02-02 04:00:00 9.7 15 Oeste 33 Oeste 0 944.3 -- 71
2021-02-02 03:00:00 12.1 10 Sudoeste 23 Oeste 0 944.6 -- 59
2021-02-02 02:00:00 10.7 13 Oeste 23 Oeste 0 944.8 -- 65
2021-02-02 01:00:00 8.9 4 Noroeste 21 Sudoeste 0 944.4 -- 66
2021-02-02 00:00:00 12.3 12 Sudoeste 27 Sudoeste 0 943.4 -- 55
2021-02-01 23:00:00 11.9 5 Sur 13 Sur 0 943.1 -- 54
2021-02-01 22:00:00 10.7 4 Este 10 Este 0 942.7 -- 55
2021-02-01 21:00:00 12.5 5 Sudoeste 15 Oeste 0 942.5 -- 45
2021-02-01 20:00:00 14.8 9 Oeste 31 Oeste 0 941.8 -- 39
2021-02-01 19:00:00 15.4 13 Sudoeste 29 Oeste 0 941.7 -- 36
2021-02-01 18:00:00 17.6 9 Oeste 35 Noroeste 0 941.3 -- 29
2021-02-01 17:00:00 19.3 17 Oeste 40 Oeste 0 940.9 -- 29
2021-02-01 16:00:00 20.9 11 Oeste 31 Oeste 0 940.3 -- 26
2021-02-01 15:00:00 21.6 10 Oeste 33 Oeste 0 940.1 -- 26
2021-02-01 14:00:00 20.9 15 Noroeste 41 Oeste 0 940.5 -- 27
2021-02-01 13:00:00 20.2 13 Oeste 49 Noroeste 0 940.7 -- 30
2021-02-01 12:00:00 19.2 15 Oeste 54 Noroeste 0 940.5 -- 32
2021-02-01 11:00:00 17.8 16 Oeste 49 Noroeste 0 940.1 -- 35
2021-02-01 10:00:00 16.8 13 Oeste 50 Oeste -- 939.9 -- 35
2021-02-01 09:00:00 14.7 13 Oeste 32 Oeste 0 939.5 -- 38
2021-02-01 08:00:00 13.4 8 Sudoeste 39 Sudoeste 0 939.2 -- 43
2021-02-01 07:00:00 14.1 12 Sudoeste 41 Sudoeste 0 938.5 -- 40
2021-02-01 06:00:00 15.2 17 Oeste 63 Noroeste 0 938.2 -- 33
2021-02-01 05:00:00 15.1 20 Noroeste 51 Oeste 0 937.6 -- 37
2021-02-01 04:00:00 15.4 17 Oeste 60 Noroeste 0 937.4 -- 37
2021-02-01 03:00:00 15.2 20 Oeste 68 Norte 0 937.3 -- 40
2021-02-01 02:00:00 16 22 Noroeste 77 Oeste 0 936.9 -- 42
2021-02-01 01:00:00 16.9 26 Oeste 74 Oeste 0 935.7 -- 39
2021-02-01 00:00:00 17 21 Oeste 71 Oeste 0 935.9 -- 42
2021-01-31 23:00:00 16.6 26 Oeste 53 Oeste 0 937.3 -- 43
2021-01-31 22:00:00 16.3 16 Sudoeste 51 Noroeste 0 937.6 -- 45
2021-01-31 21:00:00 15.4 18 Sudoeste 38 Sudoeste 0 937.8 -- 52
2021-01-31 20:00:00 15.3 10 Sudoeste 30 Sudoeste 0 938.5 -- 52
2021-01-31 19:00:00 15.5 16 Oeste 41 Sudoeste 0 938.4 -- 50
2021-01-31 18:00:00 15.8 13 Sudoeste 40 Sudoeste 0 938.1 -- 50
2021-01-31 17:00:00 16.1 18 Sudoeste 50 Sudoeste 0 938 -- 50
2021-01-31 16:00:00 16.5 22 Sudoeste 49 Sudoeste 0 937.6 -- 48
2021-01-31 15:00:00 16.9 18 Oeste 49 Sudoeste 0 938 -- 47
2021-01-31 14:00:00 17.8 12 Noroeste 39 Oeste 0 938.3 -- 44
2021-01-31 13:00:00 15.8 14 Sudoeste 37 Sudoeste 0 939.3 -- 46
2021-01-31 12:00:00 17.1 15 Oeste 55 Oeste 0 939.3 -- 42
2021-01-31 11:00:00 14.2 13 Oeste 44 Oeste 0 939.1 -- 45
2021-01-31 10:00:00 12.9 19 Oeste 64 Oeste 0 938.4 -- 40
2021-01-31 09:00:00 11.6 8 Oeste 27 Noroeste 0 938.4 -- 41
2021-01-31 08:00:00 8.2 10 Sudeste 20 Sudeste 0 938.4 -- 52
2021-01-31 07:00:00 8.3 5 Este 35 Oeste 0 938.3 -- 55
2021-01-31 06:00:00 8.8 7 Sudoeste 20 Oeste 0 938.2 -- 55
2021-01-31 05:00:00 9.9 12 Oeste 36 Oeste 0 938.4 -- 51
2021-01-31 04:00:00 10.2 13 Oeste 53 Oeste 0 938.5 -- 48
2021-01-31 03:00:00 10.1 12 Oeste 44 Sudoeste 0 938.6 -- 46
2021-01-31 02:00:00 10.4 15 Oeste 36 Oeste 0 938.5 -- 43
2021-01-31 01:00:00 10.5 12 Oeste 42 Sudoeste 0 938.4 -- 43
2021-01-31 00:00:00 11.4 16 Sudoeste 42 Sudoeste 0 938.3 -- 41
2021-01-30 23:00:00 11.2 9 Oeste 49 Sudoeste 0 938.3 -- 42
2021-01-30 22:00:00 11.5 11 Sudoeste 32 Oeste 0 938.2 -- 40
2021-01-30 21:00:00 12.1 15 Sudoeste 44 Oeste 0 937.6 -- 40
2021-01-30 20:00:00 12.3 10 Sudoeste 57 Oeste 0 937.5 -- 38
2021-01-30 19:00:00 12.6 23 Sudoeste 45 Sudoeste 0 937.4 -- 41
2021-01-30 18:00:00 13.7 20 Sudoeste 60 Oeste 0 937.3 -- 39
2021-01-30 17:00:00 15.8 20 Oeste 53 Oeste 0 937.2 -- 28
2021-01-30 16:00:00 17.6 19 Oeste 62 Oeste 0 935.7 -- 27
2021-01-30 15:00:00 17.6 32 Oeste 69 Sudoeste 0 935.8 -- 25
2021-01-30 14:00:00 18.1 28 Oeste 64 Oeste 0 936.5 -- 30
2021-01-30 13:00:00 17.5 31 Oeste 57 Oeste 0 938.1 -- 32
2021-01-30 12:00:00 17.2 21 Oeste 51 Oeste 0 939.2 -- 40
2021-01-30 11:00:00 15.3 18 Sudoeste 39 Sudoeste 0 939.8 -- 54
2021-01-30 10:00:00 13.4 5 Sudeste 19 Oeste 0 939.6 -- 55
2021-01-30 09:00:00 12.5 9 Sudoeste 21 Sudoeste 0 939.7 -- 52
2021-01-30 08:00:00 13.7 12 Sudoeste 37 Sudoeste 0 939.9 -- 45
2021-01-30 07:00:00 15.2 19 Sudoeste 36 Oeste 0 939.8 -- 39
2021-01-30 06:00:00 14.5 18 Sudoeste 36 Sudoeste 0 940.1 -- 40
2021-01-30 05:00:00 15.8 23 Sudoeste 41 Sudoeste 0 940.5 -- 36
2021-01-30 04:00:00 9.7 3 Oeste 12 Nordeste 0 941.9 -- 56
2021-01-30 03:00:00 10.4 6 Noroeste 19 Sudoeste 0 942.7 -- 55
2021-01-30 02:00:00 12.8 11 Oeste 27 Sudoeste 0 943.9 -- 46
2021-01-30 01:00:00 13.1 14 Oeste 24 Oeste 0 944.6 -- 46
2021-01-30 00:00:00 13 6 Oeste 17 Oeste 0 945.1 -- 43